תחנות METAR סמוכות

 

LLBG - Ben-Gurion(Civ/M, Israel
Distance from station: 'מ 83km
עודכן: 24/05/2017 08:50
מעונן חלקית
מעונן חלקית
 רוח מ 'מ
רוח: 'מ 7 km/h
טמפרטורה: 23°C
נקודת הטל: 15°C
לחות: 61%
ברומטר: 1017 hPa
עננים: מעונן חלקית
ראות: 10 km
Cloud details: מעונן חלקית 823 m
2017/05/24 05:50 LLBG 240550Z 27004KT 9999 SCT027 23/15 Q1017 NOSIG
LLSD - Sde Dov Airport, Israel
Distance from station: 'מ 75km
עודכן: 24/05/2017 08:50
מעונן חלקית
מעונן חלקית
 רוח מ 'מדמ
רוח: 'מדמ 9 km/h
טמפרטורה: 22°C
נקודת הטל: 15°C
לחות: 65%
ברומטר: 1017 hPa
עננים: מעונן חלקית
ראות: 10 km
Cloud details: מעונן חלקית 762 m
2017/05/24 05:50 LLSD 240550Z 25005KT 9999 SCT025 22/15 Q1017
 
LLHA - Haifa (isr-Afb), Israel
Distance from station: 'צמ 129km
עודכן: 24/05/2017 08:50
מעונן חלקית
מעונן חלקית
 רוח מ משתנה
רוח: משתנה 4 km/h
טמפרטורה: 23°C
נקודת הטל: 14°C
לחות: 57%
ברומטר: 1017 hPa
עננים: מעונן חלקית
ראות: 10 km
Cloud details: מעונן חלקית 914 m
2017/05/24 05:50 LLHA 240550Z VRB02KT 9999 SCT030 23/14 Q1017
LLIB - Ben Ya Akov, Israel
Distance from station: 'צמ 183km
עודכן: 24/05/2017 08:50
מעונן חלקית
מעונן חלקית
 רוח מ משתנה
רוח: משתנה 4 km/h
טמפרטורה: 22°C
נקודת הטל: 13°C
לחות: 57%
ברומטר: 1017 hPa
עננים: מעונן חלקית
ראות: 10 km
Cloud details: מעונן חלקית 914 m
2017/05/24 05:50 LLIB 240550Z VRB02KT 9999 SCT030 22/13 Q1017
 
LLOV - Ovda (isr-Afb/Ci, Israel
Distance from station: 'דדמ 246km
עודכן: 21/05/2017 14:50
לא מעודכן
בהיר
בהיר
 רוח מ 'צצמ
רוח: 'צצמ 22 km/h
טמפרטורה: 26°C
נקודת הטל: 3°C
לחות: 23%
ברומטר: 1015 hPa
סיכום: בהיר
ראות: greater than 10 km
2017/05/21 11:50 LLOV 211150Z 34012KT CAVOK 26/03 Q1015
LLET - Elat/J. Hozman(A, Israel
Distance from station: 'דדמ 287km
עודכן: 24/05/2017 08:50
בהיר
בהיר
 רוח מ 'צמ
רוח: 'צמ 20 km/h
טמפרטורה: 24°C
נקודת הטל: 10°C
לחות: 41%
ברומטר: 1016 hPa
סיכום: בהיר
ראות: greater than 10 km
2017/05/24 05:50 LLET 240550Z 04011KT CAVOK 24/10 Q1016
 
LCLK - Larnaca/Larnax A, Cyprus
Distance from station: 'צ 321km
עודכן: 24/05/2017 09:00
Few Clouds
Few Clouds
 רוח מ 'ד
רוח: 'ד 13 km/h
טמפרטורה: 22°C
נקודת הטל: 16°C
לחות: 69%
ברומטר: 1015 hPa
עננים: Few Clouds
ראות: 10 km
Cloud details: Few Clouds 1067 m
2017/05/24 06:00 LCLK 240600Z 17007KT 9999 FEW035 22/16 Q1015 NOSIG